Terminal Aerodrome Forecast
Issued by NWS

Home | Current Version | Previous Version | Text Only | Print | Product List | Glossary On
Versions: 1 2 3 4 5 6 7 8 9 10 11 12 13 14 15
000
FTUS42 KTBW 031749 AAB
TAFLAL
TAF AMD
KLAL 031749Z 0318/0418 20009KT P6SM VCSH SCT025 SCT050
     FM032200 26008KT P6SM SCT050 SCT200
     FM040800 21005KT P6SM VCSH SCT035 BKN050
     FM041300 23010KT 5SM TSRA SCT025CB OVC040=

USA.gov is the U.S. government's official web portal to all federal, state and local government web resources and services.